sensor_id;sensor_type;location;lat;lon;timestamp;P1;durP1;ratioP1;P2;durP2;ratioP2
70253;SDS011;57649;42.968;1.608;2023-02-17T00:00:21;15.68;;;9.73;;
70253;SDS011;57649;42.968;1.608;2023-02-17T00:02:46;18.13;;;9.98;;
70253;SDS011;57649;42.968;1.608;2023-02-17T00:05:13;15.30;;;10.05;;
70253;SDS011;57649;42.968;1.608;2023-02-17T00:07:38;14.70;;;10.07;;
70253;SDS011;57649;42.968;1.608;2023-02-17T00:10:04;18.48;;;9.77;;
70253;SDS011;57649;42.968;1.608;2023-02-17T00:12:30;13.10;;;9.50;;
70253;SDS011;57649;42.968;1.608;2023-02-17T00:14:56;15.13;;;9.23;;
70253;SDS011;57649;42.968;1.608;2023-02-17T00:17:21;17.20;;;11.20;;
70253;SDS011;57649;42.968;1.608;2023-02-17T00:19:47;16.27;;;10.23;;
70253;SDS011;57649;42.968;1.608;2023-02-17T00:22:12;14.68;;;8.80;;
70253;SDS011;57649;42.968;1.608;2023-02-17T00:24:38;12.73;;;8.48;;
70253;SDS011;57649;42.968;1.608;2023-02-17T00:27:04;16.38;;;9.10;;
70253;SDS011;57649;42.968;1.608;2023-02-17T00:29:31;15.90;;;9.75;;
70253;SDS011;57649;42.968;1.608;2023-02-17T00:31:57;12.52;;;8.85;;
70253;SDS011;57649;42.968;1.608;2023-02-17T00:34:22;14.15;;;9.57;;
70253;SDS011;57649;42.968;1.608;2023-02-17T00:36:48;11.90;;;8.05;;
70253;SDS011;57649;42.968;1.608;2023-02-17T00:39:14;14.75;;;9.18;;
70253;SDS011;57649;42.968;1.608;2023-02-17T00:41:40;16.00;;;9.65;;
70253;SDS011;57649;42.968;1.608;2023-02-17T00:44:06;15.45;;;8.88;;
70253;SDS011;57649;42.968;1.608;2023-02-17T00:46:32;12.52;;;8.68;;
70253;SDS011;57649;42.968;1.608;2023-02-17T00:48:57;15.32;;;9.57;;
70253;SDS011;57649;42.968;1.608;2023-02-17T00:51:23;13.13;;;8.57;;
70253;SDS011;57649;42.968;1.608;2023-02-17T00:53:49;13.82;;;9.35;;
70253;SDS011;57649;42.968;1.608;2023-02-17T00:56:15;14.93;;;9.15;;
70253;SDS011;57649;42.968;1.608;2023-02-17T00:58:41;13.77;;;8.32;;
70253;SDS011;57649;42.968;1.608;2023-02-17T01:01:07;17.10;;;9.05;;
70253;SDS011;57649;42.968;1.608;2023-02-17T01:03:34;17.30;;;12.73;;
70253;SDS011;57649;42.968;1.608;2023-02-17T01:06:03;12.00;;;8.52;;
70253;SDS011;57649;42.968;1.608;2023-02-17T01:08:30;13.27;;;8.25;;
70253;SDS011;57649;42.968;1.608;2023-02-17T01:10:55;15.95;;;9.10;;
70253;SDS011;57649;42.968;1.608;2023-02-17T01:13:21;16.30;;;9.02;;
70253;SDS011;57649;42.968;1.608;2023-02-17T01:15:48;13.23;;;8.80;;
70253;SDS011;57649;42.968;1.608;2023-02-17T01:18:17;13.73;;;8.52;;
70253;SDS011;57649;42.968;1.608;2023-02-17T01:20:44;15.23;;;9.65;;
70253;SDS011;57649;42.968;1.608;2023-02-17T01:23:10;12.57;;;7.95;;
70253;SDS011;57649;42.968;1.608;2023-02-17T01:25:41;12.80;;;8.32;;
70253;SDS011;57649;42.968;1.608;2023-02-17T01:28:19;14.50;;;7.90;;
70253;SDS011;57649;42.968;1.608;2023-02-17T01:30:45;11.75;;;7.68;;
70253;SDS011;57649;42.968;1.608;2023-02-17T01:33:11;12.63;;;8.35;;
70253;SDS011;57649;42.968;1.608;2023-02-17T01:35:36;16.67;;;8.77;;
70253;SDS011;57649;42.968;1.608;2023-02-17T01:38:02;14.05;;;8.85;;
70253;SDS011;57649;42.968;1.608;2023-02-17T01:40:27;13.73;;;8.85;;
70253;SDS011;57649;42.968;1.608;2023-02-17T01:42:54;15.55;;;9.40;;
70253;SDS011;57649;42.968;1.608;2023-02-17T01:47:45;15.07;;;8.35;;
70253;SDS011;57649;42.968;1.608;2023-02-17T01:50:15;17.45;;;8.82;;
70253;SDS011;57649;42.968;1.608;2023-02-17T01:52:45;11.77;;;7.70;;
70253;SDS011;57649;42.968;1.608;2023-02-17T01:55:12;13.30;;;7.78;;
70253;SDS011;57649;42.968;1.608;2023-02-17T01:57:40;16.70;;;8.90;;
70253;SDS011;57649;42.968;1.608;2023-02-17T02:00:08;17.10;;;8.48;;
70253;SDS011;57649;42.968;1.608;2023-02-17T02:02:35;16.77;;;8.63;;
70253;SDS011;57649;42.968;1.608;2023-02-17T02:05:02;16.45;;;9.73;;
70253;SDS011;57649;42.968;1.608;2023-02-17T02:07:30;15.32;;;8.00;;
70253;SDS011;57649;42.968;1.608;2023-02-17T02:09:59;13.32;;;8.00;;
70253;SDS011;57649;42.968;1.608;2023-02-17T02:12:26;11.35;;;6.85;;
70253;SDS011;57649;42.968;1.608;2023-02-17T02:14:57;11.52;;;7.45;;
70253;SDS011;57649;42.968;1.608;2023-02-17T02:25:46;12.35;;;7.93;;
70253;SDS011;57649;42.968;1.608;2023-02-17T02:34:09;12.35;;;7.78;;
70253;SDS011;57649;42.968;1.608;2023-02-17T02:36:46;15.70;;;8.00;;
70253;SDS011;57649;42.968;1.608;2023-02-17T02:39:18;12.15;;;7.18;;
70253;SDS011;57649;42.968;1.608;2023-02-17T02:41:49;10.93;;;7.57;;
70253;SDS011;57649;42.968;1.608;2023-02-17T02:44:20;10.98;;;7.80;;
70253;SDS011;57649;42.968;1.608;2023-02-17T02:46:59;16.38;;;7.70;;
70253;SDS011;57649;42.968;1.608;2023-02-17T02:49:29;9.75;;;6.88;;
70253;SDS011;57649;42.968;1.608;2023-02-17T02:54:33;10.98;;;6.68;;
70253;SDS011;57649;42.968;1.608;2023-02-17T03:02:48;14.38;;;7.70;;
70253;SDS011;57649;42.968;1.608;2023-02-17T03:07:53;10.48;;;6.82;;
70253;SDS011;57649;42.968;1.608;2023-02-17T03:10:24;11.77;;;7.60;;
70253;SDS011;57649;42.968;1.608;2023-02-17T03:12:49;12.73;;;7.07;;
70253;SDS011;57649;42.968;1.608;2023-02-17T03:15:17;19.33;;;12.18;;
70253;SDS011;57649;42.968;1.608;2023-02-17T03:17:49;49.40;;;25.55;;
70253;SDS011;57649;42.968;1.608;2023-02-17T03:20:14;39.70;;;22.63;;
70253;SDS011;57649;42.968;1.608;2023-02-17T03:22:41;24.40;;;15.77;;
70253;SDS011;57649;42.968;1.608;2023-02-17T03:25:10;18.02;;;12.63;;
70253;SDS011;57649;42.968;1.608;2023-02-17T03:27:35;31.88;;;20.23;;
70253;SDS011;57649;42.968;1.608;2023-02-17T03:30:01;28.50;;;16.08;;
70253;SDS011;57649;42.968;1.608;2023-02-17T03:32:26;27.00;;;12.15;;
70253;SDS011;57649;42.968;1.608;2023-02-17T03:34:52;17.00;;;12.02;;
70253;SDS011;57649;42.968;1.608;2023-02-17T03:37:17;36.67;;;20.55;;
70253;SDS011;57649;42.968;1.608;2023-02-17T03:39:43;17.38;;;10.55;;
70253;SDS011;57649;42.968;1.608;2023-02-17T03:42:08;11.52;;;7.85;;
70253;SDS011;57649;42.968;1.608;2023-02-17T03:44:34;11.55;;;6.75;;
70253;SDS011;57649;42.968;1.608;2023-02-17T03:46:59;12.35;;;7.20;;
70253;SDS011;57649;42.968;1.608;2023-02-17T03:49:25;14.18;;;8.15;;
70253;SDS011;57649;42.968;1.608;2023-02-17T03:51:50;15.00;;;7.80;;
70253;SDS011;57649;42.968;1.608;2023-02-17T03:54:15;12.50;;;7.35;;
70253;SDS011;57649;42.968;1.608;2023-02-17T03:56:41;10.98;;;8.13;;
70253;SDS011;57649;42.968;1.608;2023-02-17T03:59:06;13.13;;;7.85;;
70253;SDS011;57649;42.968;1.608;2023-02-17T04:01:32;13.43;;;8.00;;
70253;SDS011;57649;42.968;1.608;2023-02-17T04:03:58;12.82;;;8.18;;
70253;SDS011;57649;42.968;1.608;2023-02-17T04:06:23;14.02;;;6.93;;
70253;SDS011;57649;42.968;1.608;2023-02-17T04:08:48;11.10;;;7.20;;
70253;SDS011;57649;42.968;1.608;2023-02-17T04:11:14;12.80;;;6.85;;
70253;SDS011;57649;42.968;1.608;2023-02-17T04:13:39;11.98;;;6.82;;
70253;SDS011;57649;42.968;1.608;2023-02-17T04:16:05;15.32;;;7.25;;
70253;SDS011;57649;42.968;1.608;2023-02-17T04:18:31;10.25;;;6.55;;
70253;SDS011;57649;42.968;1.608;2023-02-17T04:20:57;13.35;;;6.93;;
70253;SDS011;57649;42.968;1.608;2023-02-17T04:23:23;10.85;;;6.93;;
70253;SDS011;57649;42.968;1.608;2023-02-17T04:25:49;12.07;;;6.70;;
70253;SDS011;57649;42.968;1.608;2023-02-17T04:28:14;9.32;;;6.53;;
70253;SDS011;57649;42.968;1.608;2023-02-17T04:30:41;10.23;;;6.38;;
70253;SDS011;57649;42.968;1.608;2023-02-17T04:35:36;10.98;;;6.20;;
70253;SDS011;57649;42.968;1.608;2023-02-17T04:38:03;8.55;;;6.43;;
70253;SDS011;57649;42.968;1.608;2023-02-17T04:40:29;10.45;;;6.45;;
70253;SDS011;57649;42.968;1.608;2023-02-17T04:42:54;9.88;;;6.88;;
70253;SDS011;57649;42.968;1.608;2023-02-17T04:45:20;9.90;;;6.32;;
70253;SDS011;57649;42.968;1.608;2023-02-17T04:47:46;10.20;;;6.45;;
70253;SDS011;57649;42.968;1.608;2023-02-17T04:50:12;8.52;;;6.45;;
70253;SDS011;57649;42.968;1.608;2023-02-17T04:52:37;12.38;;;7.00;;
70253;SDS011;57649;42.968;1.608;2023-02-17T04:55:03;12.68;;;6.88;;
70253;SDS011;57649;42.968;1.608;2023-02-17T04:57:29;10.35;;;6.35;;
70253;SDS011;57649;42.968;1.608;2023-02-17T04:59:54;9.95;;;6.82;;
70253;SDS011;57649;42.968;1.608;2023-02-17T05:02:20;9.95;;;6.70;;
70253;SDS011;57649;42.968;1.608;2023-02-17T05:04:45;10.48;;;6.90;;
70253;SDS011;57649;42.968;1.608;2023-02-17T05:07:11;11.70;;;7.38;;
70253;SDS011;57649;42.968;1.608;2023-02-17T05:09:36;10.07;;;6.47;;
70253;SDS011;57649;42.968;1.608;2023-02-17T05:12:02;11.55;;;6.45;;
70253;SDS011;57649;42.968;1.608;2023-02-17T05:14:29;13.07;;;6.85;;
70253;SDS011;57649;42.968;1.608;2023-02-17T05:16:55;11.10;;;7.07;;
70253;SDS011;57649;42.968;1.608;2023-02-17T05:19:20;9.98;;;6.68;;
70253;SDS011;57649;42.968;1.608;2023-02-17T05:21:45;13.95;;;6.75;;
70253;SDS011;57649;42.968;1.608;2023-02-17T05:24:11;8.75;;;6.57;;
70253;SDS011;57649;42.968;1.608;2023-02-17T05:26:36;11.27;;;6.07;;
70253;SDS011;57649;42.968;1.608;2023-02-17T05:29:02;13.55;;;6.32;;
70253;SDS011;57649;42.968;1.608;2023-02-17T05:31:27;15.52;;;9.70;;
70253;SDS011;57649;42.968;1.608;2023-02-17T05:33:54;47.60;;;9.40;;
70253;SDS011;57649;42.968;1.608;2023-02-17T05:36:19;14.38;;;6.90;;
70253;SDS011;57649;42.968;1.608;2023-02-17T05:38:45;23.80;;;7.60;;
70253;SDS011;57649;42.968;1.608;2023-02-17T05:41:13;10.73;;;7.00;;
70253;SDS011;57649;42.968;1.608;2023-02-17T05:43:42;20.73;;;8.77;;
70253;SDS011;57649;42.968;1.608;2023-02-17T05:46:08;16.63;;;7.80;;
70253;SDS011;57649;42.968;1.608;2023-02-17T05:48:33;14.95;;;8.82;;
70253;SDS011;57649;42.968;1.608;2023-02-17T05:50:59;12.85;;;7.95;;
70253;SDS011;57649;42.968;1.608;2023-02-17T05:53:24;12.70;;;6.88;;
70253;SDS011;57649;42.968;1.608;2023-02-17T05:55:50;13.20;;;8.40;;
70253;SDS011;57649;42.968;1.608;2023-02-17T05:58:16;15.80;;;6.85;;
70253;SDS011;57649;42.968;1.608;2023-02-17T06:00:41;15.40;;;7.18;;
70253;SDS011;57649;42.968;1.608;2023-02-17T06:03:07;13.38;;;7.63;;
70253;SDS011;57649;42.968;1.608;2023-02-17T06:05:32;10.80;;;6.53;;
70253;SDS011;57649;42.968;1.608;2023-02-17T06:07:58;12.57;;;6.60;;
70253;SDS011;57649;42.968;1.608;2023-02-17T06:10:23;8.88;;;6.78;;
70253;SDS011;57649;42.968;1.608;2023-02-17T06:12:48;11.35;;;6.88;;
70253;SDS011;57649;42.968;1.608;2023-02-17T06:15:14;11.63;;;7.00;;
70253;SDS011;57649;42.968;1.608;2023-02-17T06:17:39;10.55;;;6.95;;
70253;SDS011;57649;42.968;1.608;2023-02-17T06:20:06;12.75;;;7.22;;
70253;SDS011;57649;42.968;1.608;2023-02-17T06:22:33;10.73;;;6.97;;
70253;SDS011;57649;42.968;1.608;2023-02-17T06:24:59;13.00;;;7.80;;
70253;SDS011;57649;42.968;1.608;2023-02-17T06:27:24;14.73;;;7.25;;
70253;SDS011;57649;42.968;1.608;2023-02-17T06:29:50;13.00;;;7.28;;
70253;SDS011;57649;42.968;1.608;2023-02-17T06:32:15;10.88;;;7.18;;
70253;SDS011;57649;42.968;1.608;2023-02-17T06:34:41;10.30;;;7.18;;
70253;SDS011;57649;42.968;1.608;2023-02-17T06:37:06;13.10;;;6.75;;
70253;SDS011;57649;42.968;1.608;2023-02-17T06:39:32;12.02;;;6.50;;
70253;SDS011;57649;42.968;1.608;2023-02-17T06:41:57;17.50;;;7.18;;
70253;SDS011;57649;42.968;1.608;2023-02-17T06:44:22;14.38;;;7.25;;
70253;SDS011;57649;42.968;1.608;2023-02-17T06:46:48;13.90;;;7.47;;
70253;SDS011;57649;42.968;1.608;2023-02-17T06:49:13;13.40;;;8.13;;
70253;SDS011;57649;42.968;1.608;2023-02-17T06:51:39;11.18;;;6.43;;
70253;SDS011;57649;42.968;1.608;2023-02-17T06:54:04;12.13;;;8.55;;
70253;SDS011;57649;42.968;1.608;2023-02-17T06:56:30;15.98;;;7.57;;
70253;SDS011;57649;42.968;1.608;2023-02-17T06:58:55;13.50;;;7.85;;
70253;SDS011;57649;42.968;1.608;2023-02-17T07:01:24;16.65;;;7.75;;
70253;SDS011;57649;42.968;1.608;2023-02-17T07:03:51;15.68;;;8.05;;
70253;SDS011;57649;42.968;1.608;2023-02-17T07:06:17;12.73;;;8.07;;
70253;SDS011;57649;42.968;1.608;2023-02-17T07:08:43;13.30;;;8.13;;
70253;SDS011;57649;42.968;1.608;2023-02-17T07:11:09;14.15;;;7.30;;
70253;SDS011;57649;42.968;1.608;2023-02-17T07:13:36;11.52;;;7.30;;
70253;SDS011;57649;42.968;1.608;2023-02-17T07:16:02;14.20;;;8.35;;
70253;SDS011;57649;42.968;1.608;2023-02-17T07:18:27;13.68;;;8.38;;
70253;SDS011;57649;42.968;1.608;2023-02-17T07:20:53;14.13;;;8.48;;
70253;SDS011;57649;42.968;1.608;2023-02-17T07:23:18;14.75;;;7.57;;
70253;SDS011;57649;42.968;1.608;2023-02-17T07:25:44;15.77;;;7.53;;
70253;SDS011;57649;42.968;1.608;2023-02-17T07:28:09;10.75;;;7.00;;
70253;SDS011;57649;42.968;1.608;2023-02-17T07:30:38;12.18;;;7.63;;
70253;SDS011;57649;42.968;1.608;2023-02-17T07:33:04;11.00;;;6.50;;
70253;SDS011;57649;42.968;1.608;2023-02-17T07:35:30;18.40;;;7.70;;
70253;SDS011;57649;42.968;1.608;2023-02-17T07:37:56;13.75;;;8.80;;
70253;SDS011;57649;42.968;1.608;2023-02-17T07:40:22;12.50;;;8.27;;
70253;SDS011;57649;42.968;1.608;2023-02-17T07:42:48;11.73;;;8.10;;
70253;SDS011;57649;42.968;1.608;2023-02-17T07:45:13;22.92;;;9.25;;
70253;SDS011;57649;42.968;1.608;2023-02-17T07:47:39;11.88;;;7.97;;
70253;SDS011;57649;42.968;1.608;2023-02-17T07:50:05;14.85;;;8.63;;
70253;SDS011;57649;42.968;1.608;2023-02-17T07:52:31;15.65;;;8.45;;
70253;SDS011;57649;42.968;1.608;2023-02-17T07:54:56;13.27;;;8.10;;
70253;SDS011;57649;42.968;1.608;2023-02-17T07:57:21;17.05;;;9.73;;
70253;SDS011;57649;42.968;1.608;2023-02-17T07:59:47;19.25;;;9.48;;
70253;SDS011;57649;42.968;1.608;2023-02-17T08:02:12;14.73;;;8.60;;
70253;SDS011;57649;42.968;1.608;2023-02-17T08:04:38;14.43;;;8.20;;
70253;SDS011;57649;42.968;1.608;2023-02-17T08:07:03;14.40;;;8.18;;
70253;SDS011;57649;42.968;1.608;2023-02-17T08:09:29;15.63;;;10.07;;
70253;SDS011;57649;42.968;1.608;2023-02-17T08:12:16;15.52;;;11.73;;
70253;SDS011;57649;42.968;1.608;2023-02-17T08:15:02;21.63;;;15.73;;
70253;SDS011;57649;42.968;1.608;2023-02-17T08:17:30;18.70;;;11.40;;
70253;SDS011;57649;42.968;1.608;2023-02-17T08:19:55;16.63;;;11.38;;
70253;SDS011;57649;42.968;1.608;2023-02-17T08:22:21;21.00;;;12.95;;
70253;SDS011;57649;42.968;1.608;2023-02-17T08:24:46;16.38;;;10.82;;
70253;SDS011;57649;42.968;1.608;2023-02-17T08:27:15;12.07;;;9.52;;
70253;SDS011;57649;42.968;1.608;2023-02-17T08:29:41;14.20;;;9.82;;
70253;SDS011;57649;42.968;1.608;2023-02-17T08:32:07;12.95;;;7.97;;
70253;SDS011;57649;42.968;1.608;2023-02-17T08:34:33;13.07;;;8.60;;
70253;SDS011;57649;42.968;1.608;2023-02-17T08:37:03;12.88;;;7.80;;
70253;SDS011;57649;42.968;1.608;2023-02-17T08:39:29;12.95;;;8.00;;
70253;SDS011;57649;42.968;1.608;2023-02-17T08:41:55;11.88;;;7.32;;
70253;SDS011;57649;42.968;1.608;2023-02-17T08:44:20;11.98;;;7.90;;
70253;SDS011;57649;42.968;1.608;2023-02-17T08:46:46;11.20;;;7.25;;
70253;SDS011;57649;42.968;1.608;2023-02-17T08:49:13;10.30;;;7.03;;
70253;SDS011;57649;42.968;1.608;2023-02-17T08:51:40;11.43;;;6.55;;
70253;SDS011;57649;42.968;1.608;2023-02-17T08:54:06;10.25;;;6.75;;
70253;SDS011;57649;42.968;1.608;2023-02-17T08:56:34;11.20;;;6.60;;
70253;SDS011;57649;42.968;1.608;2023-02-17T08:59:02;14.88;;;7.20;;
70253;SDS011;57649;42.968;1.608;2023-02-17T09:01:29;13.48;;;6.13;;
70253;SDS011;57649;42.968;1.608;2023-02-17T09:03:55;11.85;;;5.78;;
70253;SDS011;57649;42.968;1.608;2023-02-17T09:06:22;10.70;;;6.32;;
70253;SDS011;57649;42.968;1.608;2023-02-17T09:08:49;10.05;;;6.57;;
70253;SDS011;57649;42.968;1.608;2023-02-17T09:11:15;12.57;;;5.88;;
70253;SDS011;57649;42.968;1.608;2023-02-17T09:13:43;10.20;;;6.00;;
70253;SDS011;57649;42.968;1.608;2023-02-17T09:16:09;9.57;;;6.07;;
70253;SDS011;57649;42.968;1.608;2023-02-17T09:18:35;23.23;;;10.75;;
70253;SDS011;57649;42.968;1.608;2023-02-17T09:21:07;11.98;;;6.03;;
70253;SDS011;57649;42.968;1.608;2023-02-17T09:23:35;11.45;;;5.65;;
70253;SDS011;57649;42.968;1.608;2023-02-17T09:26:01;7.90;;;4.57;;
70253;SDS011;57649;42.968;1.608;2023-02-17T09:28:31;9.02;;;6.32;;
70253;SDS011;57649;42.968;1.608;2023-02-17T09:30:57;9.10;;;4.45;;
70253;SDS011;57649;42.968;1.608;2023-02-17T09:33:23;11.52;;;5.07;;
70253;SDS011;57649;42.968;1.608;2023-02-17T09:35:49;11.90;;;5.53;;
70253;SDS011;57649;42.968;1.608;2023-02-17T09:38:14;8.85;;;4.95;;
70253;SDS011;57649;42.968;1.608;2023-02-17T09:40:41;12.65;;;5.07;;
70253;SDS011;57649;42.968;1.608;2023-02-17T09:43:16;7.13;;;4.45;;
70253;SDS011;57649;42.968;1.608;2023-02-17T09:45:50;9.23;;;4.55;;
70253;SDS011;57649;42.968;1.608;2023-02-17T09:48:19;12.30;;;4.78;;
70253;SDS011;57649;42.968;1.608;2023-02-17T09:50:57;11.82;;;4.55;;
70253;SDS011;57649;42.968;1.608;2023-02-17T09:53:36;10.88;;;4.32;;
70253;SDS011;57649;42.968;1.608;2023-02-17T09:56:10;16.08;;;4.25;;
70253;SDS011;57649;42.968;1.608;2023-02-17T09:58:49;12.02;;;4.40;;
70253;SDS011;57649;42.968;1.608;2023-02-17T10:01:23;9.57;;;3.72;;
70253;SDS011;57649;42.968;1.608;2023-02-17T10:03:58;11.38;;;4.38;;
70253;SDS011;57649;42.968;1.608;2023-02-17T10:06:27;7.13;;;4.20;;
70253;SDS011;57649;42.968;1.608;2023-02-17T10:09:02;13.38;;;4.60;;
70253;SDS011;57649;42.968;1.608;2023-02-17T10:11:30;8.38;;;4.18;;
70253;SDS011;57649;42.968;1.608;2023-02-17T10:14:00;6.30;;;4.07;;
70253;SDS011;57649;42.968;1.608;2023-02-17T10:16:34;8.85;;;3.75;;
70253;SDS011;57649;42.968;1.608;2023-02-17T10:19:09;10.77;;;3.97;;
70253;SDS011;57649;42.968;1.608;2023-02-17T10:21:48;11.48;;;4.20;;
70253;SDS011;57649;42.968;1.608;2023-02-17T10:24:21;6.80;;;3.90;;
70253;SDS011;57649;42.968;1.608;2023-02-17T10:29:58;9.25;;;4.18;;
70253;SDS011;57649;42.968;1.608;2023-02-17T10:32:31;8.10;;;4.10;;
70253;SDS011;57649;42.968;1.608;2023-02-17T10:38:16;7.03;;;3.60;;
70253;SDS011;57649;42.968;1.608;2023-02-17T10:40:50;7.18;;;4.03;;
70253;SDS011;57649;42.968;1.608;2023-02-17T10:43:21;8.50;;;4.80;;
70253;SDS011;57649;42.968;1.608;2023-02-17T10:45:51;10.80;;;5.05;;
70253;SDS011;57649;42.968;1.608;2023-02-17T10:48:21;7.25;;;4.50;;
70253;SDS011;57649;42.968;1.608;2023-02-17T10:50:52;6.85;;;4.47;;
70253;SDS011;57649;42.968;1.608;2023-02-17T10:53:28;10.02;;;4.68;;
70253;SDS011;57649;42.968;1.608;2023-02-17T10:58:54;6.32;;;3.70;;
70253;SDS011;57649;42.968;1.608;2023-02-17T11:01:24;12.55;;;4.65;;
70253;SDS011;57649;42.968;1.608;2023-02-17T11:03:58;6.38;;;3.90;;
70253;SDS011;57649;42.968;1.608;2023-02-17T11:06:25;8.23;;;4.18;;
70253;SDS011;57649;42.968;1.608;2023-02-17T11:08:53;7.05;;;4.60;;
70253;SDS011;57649;42.968;1.608;2023-02-17T11:11:27;6.10;;;3.78;;
70253;SDS011;57649;42.968;1.608;2023-02-17T11:16:42;7.47;;;4.53;;
70253;SDS011;57649;42.968;1.608;2023-02-17T11:19:26;7.90;;;4.23;;
70253;SDS011;57649;42.968;1.608;2023-02-17T11:22:00;8.17;;;5.10;;
70253;SDS011;57649;42.968;1.608;2023-02-17T11:24:29;8.17;;;4.57;;
70253;SDS011;57649;42.968;1.608;2023-02-17T11:26:58;12.18;;;4.85;;
70253;SDS011;57649;42.968;1.608;2023-02-17T11:29:25;9.50;;;4.07;;
70253;SDS011;57649;42.968;1.608;2023-02-17T11:34:22;5.55;;;2.60;;
70253;SDS011;57649;42.968;1.608;2023-02-17T11:36:56;4.05;;;2.50;;
70253;SDS011;57649;42.968;1.608;2023-02-17T11:39:41;16.02;;;3.80;;
70253;SDS011;57649;42.968;1.608;2023-02-17T11:44:57;6.35;;;3.63;;
70253;SDS011;57649;42.968;1.608;2023-02-17T11:57:40;7.20;;;3.38;;
70253;SDS011;57649;42.968;1.608;2023-02-17T12:14:43;33.47;;;5.13;;
70253;SDS011;57649;42.968;1.608;2023-02-17T12:20:30;14.75;;;3.70;;
70253;SDS011;57649;42.968;1.608;2023-02-17T12:25:56;38.22;;;5.47;;
70253;SDS011;57649;42.968;1.608;2023-02-17T12:28:48;17.25;;;3.63;;
70253;SDS011;57649;42.968;1.608;2023-02-17T12:34:52;13.77;;;2.92;;
70253;SDS011;57649;42.968;1.608;2023-02-17T12:37:01;12.20;;;2.85;;
70253;SDS011;57649;42.968;1.608;2023-02-17T12:39:35;17.33;;;3.47;;
70253;SDS011;57649;42.968;1.608;2023-02-17T12:42:10;10.60;;;3.10;;
70253;SDS011;57649;42.968;1.608;2023-02-17T12:44:42;6.43;;;3.25;;
70253;SDS011;57649;42.968;1.608;2023-02-17T12:47:12;6.45;;;2.88;;
70253;SDS011;57649;42.968;1.608;2023-02-17T12:49:48;11.00;;;3.55;;
70253;SDS011;57649;42.968;1.608;2023-02-17T12:52:30;8.50;;;3.08;;
70253;SDS011;57649;42.968;1.608;2023-02-17T12:55:04;5.25;;;2.53;;
70253;SDS011;57649;42.968;1.608;2023-02-17T12:57:52;6.07;;;2.70;;
70253;SDS011;57649;42.968;1.608;2023-02-17T13:03:28;6.85;;;2.60;;
70253;SDS011;57649;42.968;1.608;2023-02-17T13:05:59;10.13;;;3.65;;
70253;SDS011;57649;42.968;1.608;2023-02-17T13:11:26;6.53;;;2.58;;
70253;SDS011;57649;42.968;1.608;2023-02-17T13:13:51;5.82;;;3.05;;
70253;SDS011;57649;42.968;1.608;2023-02-17T13:16:17;9.73;;;2.80;;
70253;SDS011;57649;42.968;1.608;2023-02-17T13:18:43;6.72;;;3.05;;
70253;SDS011;57649;42.968;1.608;2023-02-17T13:26:34;9.75;;;3.42;;
70253;SDS011;57649;42.968;1.608;2023-02-17T13:29:09;12.80;;;4.30;;
70253;SDS011;57649;42.968;1.608;2023-02-17T13:34:22;7.57;;;3.83;;
70253;SDS011;57649;42.968;1.608;2023-02-17T13:36:56;10.43;;;3.20;;
70253;SDS011;57649;42.968;1.608;2023-02-17T13:41:52;6.82;;;2.50;;
70253;SDS011;57649;42.968;1.608;2023-02-17T13:44:27;8.27;;;3.10;;
70253;SDS011;57649;42.968;1.608;2023-02-17T13:49:50;7.03;;;3.08;;
70253;SDS011;57649;42.968;1.608;2023-02-17T13:52:25;7.32;;;2.78;;
70253;SDS011;57649;42.968;1.608;2023-02-17T13:55:03;4.85;;;2.47;;
70253;SDS011;57649;42.968;1.608;2023-02-17T13:57:31;6.90;;;2.80;;
70253;SDS011;57649;42.968;1.608;2023-02-17T14:02:49;7.53;;;2.78;;
70253;SDS011;57649;42.968;1.608;2023-02-17T14:08:02;8.88;;;3.20;;
70253;SDS011;57649;42.968;1.608;2023-02-17T14:10:30;8.52;;;3.55;;
70253;SDS011;57649;42.968;1.608;2023-02-17T14:12:56;8.40;;;3.75;;
70253;SDS011;57649;42.968;1.608;2023-02-17T14:15:24;9.02;;;3.60;;
70253;SDS011;57649;42.968;1.608;2023-02-17T14:17:52;12.05;;;4.22;;
70253;SDS011;57649;42.968;1.608;2023-02-17T14:22:59;6.28;;;3.17;;
70253;SDS011;57649;42.968;1.608;2023-02-17T14:25:30;11.73;;;5.22;;
70253;SDS011;57649;42.968;1.608;2023-02-17T14:27:58;9.82;;;4.68;;
70253;SDS011;57649;42.968;1.608;2023-02-17T14:35:32;9.48;;;4.00;;
70253;SDS011;57649;42.968;1.608;2023-02-17T14:38:09;15.02;;;4.28;;
70253;SDS011;57649;42.968;1.608;2023-02-17T14:40:45;13.00;;;4.00;;
70253;SDS011;57649;42.968;1.608;2023-02-17T14:43:10;10.20;;;3.70;;
70253;SDS011;57649;42.968;1.608;2023-02-17T14:45:36;12.73;;;3.35;;
70253;SDS011;57649;42.968;1.608;2023-02-17T14:48:01;8.60;;;3.97;;
70253;SDS011;57649;42.968;1.608;2023-02-17T14:50:27;7.07;;;3.70;;
70253;SDS011;57649;42.968;1.608;2023-02-17T14:52:52;7.63;;;4.75;;
70253;SDS011;57649;42.968;1.608;2023-02-17T14:57:51;13.02;;;4.30;;
70253;SDS011;57649;42.968;1.608;2023-02-17T15:00:16;10.23;;;3.95;;
70253;SDS011;57649;42.968;1.608;2023-02-17T15:02:42;13.95;;;5.13;;
70253;SDS011;57649;42.968;1.608;2023-02-17T15:05:07;10.18;;;5.40;;
70253;SDS011;57649;42.968;1.608;2023-02-17T15:07:33;7.35;;;5.10;;
70253;SDS011;57649;42.968;1.608;2023-02-17T15:09:59;12.20;;;4.20;;
70253;SDS011;57649;42.968;1.608;2023-02-17T15:12:24;7.38;;;4.15;;
70253;SDS011;57649;42.968;1.608;2023-02-17T15:14:50;14.10;;;4.13;;
70253;SDS011;57649;42.968;1.608;2023-02-17T15:17:15;13.27;;;3.95;;
70253;SDS011;57649;42.968;1.608;2023-02-17T15:19:41;11.23;;;4.63;;
70253;SDS011;57649;42.968;1.608;2023-02-17T15:22:10;11.13;;;4.93;;
70253;SDS011;57649;42.968;1.608;2023-02-17T15:24:36;11.05;;;5.65;;
70253;SDS011;57649;42.968;1.608;2023-02-17T15:27:03;15.45;;;5.97;;
70253;SDS011;57649;42.968;1.608;2023-02-17T15:29:30;13.25;;;5.38;;
70253;SDS011;57649;42.968;1.608;2023-02-17T15:31:56;16.08;;;5.68;;
70253;SDS011;57649;42.968;1.608;2023-02-17T15:34:25;14.95;;;5.03;;
70253;SDS011;57649;42.968;1.608;2023-02-17T15:36:55;12.43;;;4.22;;
70253;SDS011;57649;42.968;1.608;2023-02-17T15:39:21;12.30;;;4.43;;
70253;SDS011;57649;42.968;1.608;2023-02-17T15:41:47;11.25;;;4.72;;
70253;SDS011;57649;42.968;1.608;2023-02-17T15:44:18;9.68;;;4.78;;
70253;SDS011;57649;42.968;1.608;2023-02-17T15:46:48;23.63;;;11.73;;
70253;SDS011;57649;42.968;1.608;2023-02-17T15:49:15;12.57;;;5.45;;
70253;SDS011;57649;42.968;1.608;2023-02-17T15:51:41;16.17;;;5.05;;
70253;SDS011;57649;42.968;1.608;2023-02-17T15:54:06;11.88;;;5.05;;
70253;SDS011;57649;42.968;1.608;2023-02-17T15:56:42;13.15;;;5.00;;
70253;SDS011;57649;42.968;1.608;2023-02-17T15:59:11;12.05;;;5.47;;
70253;SDS011;57649;42.968;1.608;2023-02-17T16:01:41;10.30;;;5.28;;
70253;SDS011;57649;42.968;1.608;2023-02-17T16:04:11;14.60;;;6.28;;
70253;SDS011;57649;42.968;1.608;2023-02-17T16:06:38;13.43;;;5.72;;
70253;SDS011;57649;42.968;1.608;2023-02-17T16:09:04;16.98;;;5.97;;
70253;SDS011;57649;42.968;1.608;2023-02-17T16:11:29;14.52;;;5.65;;
70253;SDS011;57649;42.968;1.608;2023-02-17T16:13:56;15.43;;;6.05;;
70253;SDS011;57649;42.968;1.608;2023-02-17T16:16:23;12.13;;;6.00;;
70253;SDS011;57649;42.968;1.608;2023-02-17T16:18:52;13.90;;;6.82;;
70253;SDS011;57649;42.968;1.608;2023-02-17T16:21:18;15.18;;;6.50;;
70253;SDS011;57649;42.968;1.608;2023-02-17T16:23:44;22.00;;;9.48;;
70253;SDS011;57649;42.968;1.608;2023-02-17T16:28:42;8.77;;;5.68;;
70253;SDS011;57649;42.968;1.608;2023-02-17T16:31:09;13.00;;;6.38;;
70253;SDS011;57649;42.968;1.608;2023-02-17T16:33:35;19.25;;;7.07;;
70253;SDS011;57649;42.968;1.608;2023-02-17T16:36:01;13.60;;;7.18;;
70253;SDS011;57649;42.968;1.608;2023-02-17T16:38:26;15.93;;;7.32;;